Time;durP1;ratioP1;P1;durP2;ratioP2;P2;SDS_P1;SDS_P2;PMS_P1;PMS_P2;Temp;Humidity;BMP_temperature;BMP_pressure;BME280_temperature;BME280_humidity;BME280_pressure;Samples;Min_cycle;Max_cycle;Signal;HPM_P1;HPM_P2
2023/05/06 00:00:26;;;;;;;;;;;20.30;73.40;;;;;;10332937;28;1918;-66
2023/05/06 00:05:21;;;;;;;;;;;20.30;73.50;;;;;;10333036;28;865;-65
2023/05/06 00:10:17;;;;;;;;;;;20.30;73.80;;;;;;10332241;28;754;-65
2023/05/06 00:15:12;;;;;;;;;;;20.30;73.70;;;;;;10332017;28;947;-66
2023/05/06 00:20:09;;;;;;;;;;;20.30;73.70;;;;;;10331675;28;1982;-65
2023/05/06 00:25:04;;;;;;;;;;;20.30;73.70;;;;;;10331334;28;972;-66
2023/05/06 00:29:59;;;;;;;;;;;20.30;73.90;;;;;;10331300;28;944;-65
2023/05/06 00:34:55;;;;;;;;;;;20.30;73.80;;;;;;10332067;28;853;-66
2023/05/06 00:39:50;;;;;;;;;;;20.30;73.80;;;;;;10331064;28;806;-65
2023/05/06 00:44:45;;;;;;;;;;;20.20;73.80;;;;;;10330364;28;1965;-65
2023/05/06 00:49:41;;;;;;;;;;;20.30;73.90;;;;;;10331309;28;885;-65
2023/05/06 00:54:36;;;;;;;;;;;20.20;73.60;;;;;;10331157;28;885;-65
2023/05/06 00:59:32;;;;;;;;;;;20.20;73.40;;;;;;10330834;28;1136;-66
2023/05/06 01:04:27;;;;;;;;;;;20.20;73.60;;;;;;10330114;28;1961;-66
2023/05/06 01:09:23;;;;;;;;;;;20.20;73.80;;;;;;10330660;28;861;-65
2023/05/06 01:14:18;;;;;;;;;;;20.20;74.80;;;;;;10331076;28;915;-65
2023/05/06 01:19:14;;;;;;;;;;;20.10;74.00;;;;;;10329054;28;952;-65
2023/05/06 01:24:10;;;;;;;;;;;20.20;74.10;;;;;;10330036;28;1902;-65
2023/05/06 01:29:05;;;;;;;;;;;20.10;73.90;;;;;;10329311;28;965;-65
2023/05/06 01:34:01;;;;;;;;;;;20.10;73.70;;;;;;10329087;28;759;-65
2023/05/06 01:38:56;;;;;;;;;;;20.10;73.80;;;;;;10328894;28;821;-65
2023/05/06 01:43:51;;;;;;;;;;;20.10;74.30;;;;;;10328551;28;1951;-65
2023/05/06 01:48:47;;;;;;;;;;;20.10;74.10;;;;;;10327858;28;967;-65
2023/05/06 01:53:42;;;;;;;;;;;20.10;74.40;;;;;;10327619;28;1194;-65
2023/05/06 01:58:37;;;;;;;;;;;20.10;74.40;;;;;;10328263;28;1475;-65
2023/05/06 02:03:33;;;;;;;;;;;20.10;74.30;;;;;;10328377;28;1918;-65
2023/05/06 02:08:28;;;;;;;;;;;20.10;74.90;;;;;;10327663;28;771;-66
2023/05/06 02:13:23;;;;;;;;;;;20.10;74.60;;;;;;10328019;28;872;-65
2023/05/06 02:18:19;;;;;;;;;;;20.10;74.70;;;;;;10327717;28;870;-65
2023/05/06 02:23:14;;;;;;;;;;;20.00;74.60;;;;;;10327471;28;1893;-66
2023/05/06 02:28:10;;;;;;;;;;;20.10;75.00;;;;;;10326925;28;787;-65
2023/05/06 02:33:05;;;;;;;;;;;20.00;75.00;;;;;;10327248;28;861;-65
2023/05/06 02:38:00;;;;;;;;;;;20.00;75.10;;;;;;10326668;28;1086;-66
2023/05/06 02:42:56;;;;;;;;;;;20.00;75.20;;;;;;10326294;28;1962;-65
2023/05/06 02:47:51;;;;;;;;;;;20.00;75.50;;;;;;10327176;28;936;-65
2023/05/06 02:52:47;;;;;;;;;;;20.00;76.60;;;;;;10326704;28;884;-65
2023/05/06 02:57:42;;;;;;;;;;;20.00;75.70;;;;;;10326422;28;1136;-65
2023/05/06 03:02:38;;;;;;;;;;;20.00;75.80;;;;;;10326550;28;1906;-65
2023/05/06 03:07:33;;;;;;;;;;;20.00;76.10;;;;;;10324970;28;852;-65
2023/05/06 03:12:28;;;;;;;;;;;20.00;76.40;;;;;;10325092;28;893;-66
2023/05/06 03:17:24;;;;;;;;;;;20.00;76.40;;;;;;10326118;28;844;-66
2023/05/06 03:22:19;;;;;;;;;;;20.00;76.40;;;;;;10325846;28;1967;-66
2023/05/06 03:27:14;;;;;;;;;;;19.90;76.40;;;;;;10325959;28;833;-65
2023/05/06 03:32:10;;;;;;;;;;;19.90;76.70;;;;;;10325302;28;923;-65
2023/05/06 03:37:05;;;;;;;;;;;20.00;76.60;;;;;;10325169;28;898;-65
2023/05/06 03:42:01;;;;;;;;;;;19.90;76.80;;;;;;10325515;28;1897;-65
2023/05/06 03:46:56;;;;;;;;;;;19.90;76.90;;;;;;10324871;28;963;-65
2023/05/06 03:51:52;;;;;;;;;;;19.90;77.80;;;;;;10325420;28;750;-65
2023/05/06 03:56:47;;;;;;;;;;;20.00;77.20;;;;;;10325402;28;877;-65
2023/05/06 04:01:43;;;;;;;;;;;20.00;77.20;;;;;;10325098;28;1961;-65
2023/05/06 04:06:38;;;;;;;;;;;20.00;77.40;;;;;;10325173;28;860;-66
2023/05/06 04:11:33;;;;;;;;;;;19.90;77.30;;;;;;10324469;28;930;-66
2023/05/06 04:16:29;;;;;;;;;;;19.90;77.30;;;;;;10324737;28;810;-65
2023/05/06 04:21:24;;;;;;;;;;;19.90;77.30;;;;;;10331750;28;1907;-66
2023/05/06 04:26:20;;;;;;;;;;;19.90;77.40;;;;;;10332194;28;1029;-65
2023/05/06 04:31:15;;;;;;;;;;;19.90;77.50;;;;;;10331668;28;901;-65
2023/05/06 04:36:11;;;;;;;;;;;20.00;77.60;;;;;;10331284;28;766;-65
2023/05/06 04:41:07;;;;;;;;;;;20.00;77.50;;;;;;10331013;28;1961;-65
2023/05/06 04:46:02;;;;;;;;;;;20.00;77.70;;;;;;10331694;28;770;-65
2023/05/06 04:50:57;;;;;;;;;;;20.00;77.60;;;;;;10331348;28;841;-66
2023/05/06 04:55:53;;;;;;;;;;;20.00;77.80;;;;;;10330921;28;1043;-66
2023/05/06 05:00:48;;;;;;;;;;;20.00;77.60;;;;;;10331165;28;1914;-66
2023/05/06 05:05:43;;;;;;;;;;;20.00;77.70;;;;;;10330293;28;786;-65
2023/05/06 05:10:39;;;;;;;;;;;20.00;77.80;;;;;;10330027;28;880;-66
2023/05/06 05:15:34;;;;;;;;;;;20.00;77.70;;;;;;10330506;28;793;-65
2023/05/06 05:20:30;;;;;;;;;;;20.00;77.80;;;;;;10330207;28;1898;-66
2023/05/06 05:25:25;;;;;;;;;;;20.00;77.80;;;;;;10328904;28;975;-65
2023/05/06 05:30:21;;;;;;;;;;;20.00;77.60;;;;;;10328461;28;964;-65
2023/05/06 05:35:16;;;;;;;;;;;20.00;77.60;;;;;;10329661;28;853;-68
2023/05/06 05:40:11;;;;;;;;;;;20.00;77.60;;;;;;10329863;28;818;-66
2023/05/06 05:45:07;;;;;;;;;;;20.00;77.50;;;;;;10329424;28;1910;-65
2023/05/06 05:50:03;;;;;;;;;;;20.10;77.60;;;;;;10329013;28;889;-66
2023/05/06 05:54:58;;;;;;;;;;;20.10;77.60;;;;;;10328227;28;1096;-66
2023/05/06 05:59:53;;;;;;;;;;;20.10;77.40;;;;;;10328430;28;1317;-65
2023/05/06 06:04:49;;;;;;;;;;;20.10;77.70;;;;;;10327788;28;1984;-65
2023/05/06 06:09:45;;;;;;;;;;;20.10;77.90;;;;;;10328221;28;802;-66
2023/05/06 06:14:43;;;;;;;;;;;20.00;78.00;;;;;;10327401;28;844;-66
2023/05/06 06:19:39;;;;;;;;;;;20.00;78.10;;;;;;10327182;28;992;-65
2023/05/06 06:24:34;;;;;;;;;;;20.10;77.80;;;;;;10326591;28;1913;-65
2023/05/06 06:29:30;;;;;;;;;;;20.00;77.90;;;;;;10328042;28;837;-65
2023/05/06 06:34:25;;;;;;;;;;;20.10;78.10;;;;;;10326718;28;809;-65
2023/05/06 06:39:20;;;;;;;;;;;20.10;78.10;;;;;;10327043;28;874;-65
2023/05/06 06:44:16;;;;;;;;;;;20.10;77.80;;;;;;10326312;28;1985;-65
2023/05/06 06:49:11;;;;;;;;;;;20.20;78.00;;;;;;10327397;28;944;-65
2023/05/06 06:54:06;;;;;;;;;;;20.10;77.90;;;;;;10326243;28;759;-65
2023/05/06 06:59:02;;;;;;;;;;;20.10;78.10;;;;;;10325491;28;1380;-65
2023/05/06 07:03:57;;;;;;;;;;;20.20;78.30;;;;;;10326475;28;1918;-65
2023/05/06 07:08:52;;;;;;;;;;;20.20;78.30;;;;;;10325785;28;798;-65
2023/05/06 07:13:48;;;;;;;;;;;20.10;78.70;;;;;;10326256;28;871;-65
2023/05/06 07:18:44;;;;;;;;;;;20.10;78.60;;;;;;10325450;28;817;-65
2023/05/06 07:23:39;;;;;;;;;;;20.10;78.50;;;;;;10326111;28;1914;-65
2023/05/06 07:28:37;;;;;;;;;;;20.20;78.80;;;;;;10326117;28;972;-64
2023/05/06 07:33:33;;;;;;;;;;;20.20;78.60;;;;;;10325263;28;790;-64
2023/05/06 07:38:28;;;;;;;;;;;20.10;78.40;;;;;;10325950;28;869;-65
2023/05/06 07:43:23;;;;;;;;;;;20.10;79.50;;;;;;10325242;28;1975;-65
2023/05/06 07:48:19;;;;;;;;;;;20.10;78.80;;;;;;10324354;28;834;-65
2023/05/06 07:53:14;;;;;;;;;;;20.10;78.90;;;;;;10328806;28;1006;-65
2023/05/06 07:58:10;;;;;;;;;;;20.10;79.00;;;;;;10333490;28;1273;-65
2023/05/06 08:03:05;;;;;;;;;;;20.20;79.10;;;;;;10333134;28;1927;-65
2023/05/06 08:08:00;;;;;;;;;;;20.10;79.30;;;;;;10332421;28;844;-65
2023/05/06 08:12:56;;;;;;;;;;;20.10;79.40;;;;;;10332206;28;782;-65
2023/05/06 08:17:51;;;;;;;;;;;20.10;79.20;;;;;;10332516;28;805;-68
2023/05/06 08:22:47;;;;;;;;;;;20.10;79.50;;;;;;10331488;28;1914;-66
2023/05/06 08:27:42;;;;;;;;;;;20.10;79.50;;;;;;10331383;28;822;-66
2023/05/06 08:32:37;;;;;;;;;;;20.10;79.30;;;;;;10331179;28;849;-66
2023/05/06 08:37:33;;;;;;;;;;;20.10;79.70;;;;;;10331106;28;810;-65
2023/05/06 08:42:28;;;;;;;;;;;20.10;79.90;;;;;;10330839;28;1913;-70
2023/05/06 08:47:24;;;;;;;;;;;20.10;80.00;;;;;;10330993;28;799;-70
2023/05/06 08:52:20;;;;;;;;;;;20.10;79.80;;;;;;10331180;28;894;-70
2023/05/06 08:57:15;;;;;;;;;;;20.10;79.60;;;;;;10330656;28;1323;-70
2023/05/06 09:02:11;;;;;;;;;;;20.10;79.80;;;;;;10331162;28;1981;-70
2023/05/06 09:07:06;;;;;;;;;;;20.10;79.50;;;;;;10329414;28;948;-70
2023/05/06 09:12:01;;;;;;;;;;;20.10;79.70;;;;;;10330393;28;817;-69
2023/05/06 09:16:57;;;;;;;;;;;20.10;79.60;;;;;;10330422;28;797;-69
2023/05/06 09:21:52;;;;;;;;;;;20.10;79.70;;;;;;10329895;28;1906;-69
2023/05/06 09:26:48;;;;;;;;;;;20.10;79.70;;;;;;10328596;28;1002;-69
2023/05/06 09:31:43;;;;;;;;;;;20.10;79.60;;;;;;10328933;28;854;-69
2023/05/06 09:36:38;;;;;;;;;;;20.10;79.40;;;;;;10329448;28;853;-69
2023/05/06 09:41:34;;;;;;;;;;;20.10;80.50;;;;;;10328519;28;1914;-69
2023/05/06 09:46:29;;;;;;;;;;;20.10;79.50;;;;;;10328959;28;861;-69
2023/05/06 09:51:25;;;;;;;;;;;20.00;79.20;;;;;;10328332;28;759;-69
2023/05/06 09:56:20;;;;;;;;;;;20.00;79.30;;;;;;10328074;28;876;-69
2023/05/06 10:01:15;;;;;;;;;;;20.10;79.50;;;;;;10327138;28;1921;-70
2023/05/06 10:06:11;;;;;;;;;;;20.00;79.50;;;;;;10327495;28;763;-70
2023/05/06 10:11:07;;;;;;;;;;;20.10;79.60;;;;;;10327916;28;908;-71
2023/05/06 10:16:02;;;;;;;;;;;20.10;79.40;;;;;;10327590;28;762;-70
2023/05/06 10:20:58;;;;;;;;;;;20.10;79.30;;;;;;10326915;28;1963;-70
2023/05/06 10:25:53;;;;;;;;;;;20.10;79.40;;;;;;10326872;28;956;-70
2023/05/06 10:30:49;;;;;;;;;;;20.10;79.40;;;;;;10326545;28;979;-71
2023/05/06 10:35:45;;;;;;;;;;;20.10;79.40;;;;;;10326910;28;802;-70
2023/05/06 10:40:40;;;;;;;;;;;20.10;79.40;;;;;;10326911;28;1910;-70
2023/05/06 10:45:35;;;;;;;;;;;20.10;79.50;;;;;;10326307;28;877;-70
2023/05/06 10:50:31;;;;;;;;;;;20.10;79.60;;;;;;10325993;28;805;-71
2023/05/06 10:55:26;;;;;;;;;;;20.10;79.60;;;;;;10326307;28;929;-71
2023/05/06 11:00:22;;;;;;;;;;;20.10;79.40;;;;;;10325522;28;1377;-71
2023/05/06 11:05:17;;;;;;;;;;;20.10;79.50;;;;;;10324890;28;1894;-71
2023/05/06 11:10:12;;;;;;;;;;;20.10;79.30;;;;;;10325529;28;951;-72
2023/05/06 11:15:08;;;;;;;;;;;20.10;79.40;;;;;;10325328;28;861;-71
2023/05/06 11:20:03;;;;;;;;;;;20.10;79.60;;;;;;10325281;28;759;-70
2023/05/06 11:24:58;;;;;;;;;;;20.00;79.40;;;;;;10325734;28;1961;-71
2023/05/06 11:29:54;;;;;;;;;;;20.00;79.50;;;;;;10324528;28;852;-70
2023/05/06 11:34:49;;;;;;;;;;;20.00;79.40;;;;;;10325806;28;801;-70
2023/05/06 11:39:45;;;;;;;;;;;20.10;79.80;;;;;;10325478;28;933;-71
2023/05/06 11:44:40;;;;;;;;;;;20.20;79.60;;;;;;10325469;28;1906;-71
2023/05/06 11:49:36;;;;;;;;;;;20.20;79.70;;;;;;10324799;28;788;-70
2023/05/06 11:54:31;;;;;;;;;;;20.10;79.50;;;;;;10325244;28;793;-70
2023/05/06 11:59:27;;;;;;;;;;;20.20;79.80;;;;;;10324743;28;1424;-71
2023/05/06 12:04:22;;;;;;;;;;;20.20;79.40;;;;;;10324336;28;1973;-67
2023/05/06 12:09:20;;;;;;;;;;;20.20;79.60;;;;;;10324966;28;765;-66
2023/05/06 12:14:16;;;;;;;;;;;20.20;79.60;;;;;;10323527;28;1148;-66
2023/05/06 12:19:11;;;;;;;;;;;20.30;80.40;;;;;;10323914;28;766;-66
2023/05/06 12:24:07;;;;;;;;;;;20.30;80.10;;;;;;10324238;28;1902;-67
2023/05/06 12:29:02;;;;;;;;;;;20.20;80.30;;;;;;10324572;28;945;-67
2023/05/06 12:33:57;;;;;;;;;;;20.20;80.40;;;;;;10323359;28;907;-67
2023/05/06 12:38:53;;;;;;;;;;;20.20;80.80;;;;;;10326742;28;771;-68
2023/05/06 12:43:49;;;;;;;;;;;20.20;80.80;;;;;;10331460;28;1894;-66
2023/05/06 12:48:44;;;;;;;;;;;20.30;81.20;;;;;;10330643;28;976;-67
2023/05/06 12:53:40;;;;;;;;;;;20.30;81.10;;;;;;10330589;28;766;-67
2023/05/06 12:58:36;;;;;;;;;;;20.30;81.30;;;;;;10330878;28;1372;-67
2023/05/06 13:03:32;;;;;;;;;;;20.40;81.80;;;;;;10329468;28;1914;-68
2023/05/06 13:08:28;;;;;;;;;;;20.40;82.00;;;;;;10330863;28;759;-67
2023/05/06 13:13:23;;;;;;;;;;;20.40;82.10;;;;;;10329825;28;798;-67
2023/05/06 13:18:19;;;;;;;;;;;20.40;81.90;;;;;;10330297;28;877;-67
2023/05/06 13:23:14;;;;;;;;;;;20.40;81.50;;;;;;10329355;28;1965;-67
2023/05/06 13:28:09;;;;;;;;;;;20.40;81.60;;;;;;10330118;28;925;-68
2023/05/06 13:33:05;;;;;;;;;;;20.40;81.50;;;;;;10328992;28;877;-66
2023/05/06 13:38:00;;;;;;;;;;;20.40;81.60;;;;;;10329630;28;845;-67
2023/05/06 13:42:55;;;;;;;;;;;20.50;81.70;;;;;;10329176;28;1898;-67
2023/05/06 13:47:51;;;;;;;;;;;20.50;81.50;;;;;;10327842;28;1003;-67
2023/05/06 13:52:46;;;;;;;;;;;20.50;81.80;;;;;;10327652;28;941;-67
2023/05/06 13:57:42;;;;;;;;;;;20.50;81.60;;;;;;10328945;28;1219;-67
2023/05/06 14:02:37;;;;;;;;;;;20.50;81.60;;;;;;10327733;28;1964;-67
2023/05/06 14:07:32;;;;;;;;;;;20.50;81.50;;;;;;10327617;28;866;-67
2023/05/06 14:12:29;;;;;;;;;;;20.50;81.50;;;;;;10326647;28;1093;-67
2023/05/06 14:17:25;;;;;;;;;;;20.50;81.60;;;;;;10327199;28;1145;-67
2023/05/06 14:22:20;;;;;;;;;;;20.50;82.00;;;;;;10327003;28;1918;-67
2023/05/06 14:27:15;;;;;;;;;;;20.50;81.70;;;;;;10327822;28;868;-68
2023/05/06 14:32:11;;;;;;;;;;;20.60;82.60;;;;;;10327036;28;876;-67
2023/05/06 14:37:06;;;;;;;;;;;20.60;82.20;;;;;;10327124;28;912;-67
2023/05/06 14:42:02;;;;;;;;;;;20.50;82.60;;;;;;10326128;28;1906;-68
2023/05/06 14:46:58;;;;;;;;;;;20.60;83.20;;;;;;10326098;28;1090;-67
2023/05/06 14:51:53;;;;;;;;;;;20.60;83.00;;;;;;10325972;28;923;-67
2023/05/06 14:56:48;;;;;;;;;;;20.70;83.40;;;;;;10325779;28;933;-67
2023/05/06 15:01:44;;;;;;;;;;;20.60;83.50;;;;;;10324246;28;1918;-67
2023/05/06 15:06:39;;;;;;;;;;;20.60;83.20;;;;;;10325791;28;877;-67
2023/05/06 15:11:35;;;;;;;;;;;20.60;83.40;;;;;;10325555;28;873;-67
2023/05/06 15:16:30;;;;;;;;;;;20.70;83.50;;;;;;10326110;28;879;-67
2023/05/06 15:21:26;;;;;;;;;;;20.60;83.40;;;;;;10325487;28;1909;-66
2023/05/06 15:26:21;;;;;;;;;;;20.60;83.20;;;;;;10324753;28;1014;-67
2023/05/06 15:31:17;;;;;;;;;;;20.60;83.50;;;;;;10325331;28;782;-67
2023/05/06 15:36:12;;;;;;;;;;;20.60;83.50;;;;;;10325275;28;900;-67
2023/05/06 15:41:07;;;;;;;;;;;20.60;83.40;;;;;;10325065;28;1971;-67
2023/05/06 15:46:03;;;;;;;;;;;20.60;83.50;;;;;;10325254;28;810;-67
2023/05/06 15:50:58;;;;;;;;;;;20.60;83.50;;;;;;10325805;28;829;-67
2023/05/06 15:55:53;;;;;;;;;;;20.60;83.60;;;;;;10324860;28;862;-67
2023/05/06 16:00:49;;;;;;;;;;;20.50;83.30;;;;;;10324310;28;1909;-67
2023/05/06 16:05:44;;;;;;;;;;;20.50;83.70;;;;;;10325206;28;830;-67
2023/05/06 16:10:40;;;;;;;;;;;20.50;83.70;;;;;;10324489;28;1062;-66
2023/05/06 16:15:35;;;;;;;;;;;20.50;83.70;;;;;;10330459;28;854;-69
2023/05/06 16:20:31;;;;;;;;;;;20.50;83.60;;;;;;10332003;28;831;-69
2023/05/06 16:25:26;;;;;;;;;;;20.50;83.80;;;;;;10333018;28;1965;-69
2023/05/06 16:30:22;;;;;;;;;;;20.50;83.70;;;;;;10332328;28;825;-69
2023/05/06 16:35:17;;;;;;;;;;;20.50;83.90;;;;;;10330916;28;1219;-69
2023/05/06 16:40:12;;;;;;;;;;;20.50;83.90;;;;;;10331975;28;947;-69
2023/05/06 16:45:08;;;;;;;;;;;20.50;84.00;;;;;;10331256;28;1949;-68
2023/05/06 16:50:03;;;;;;;;;;;20.50;84.10;;;;;;10331625;28;968;-69
2023/05/06 16:54:58;;;;;;;;;;;20.50;83.90;;;;;;10331354;28;900;-69
2023/05/06 16:59:54;;;;;;;;;;;20.50;84.00;;;;;;10330520;28;1411;-69
2023/05/06 17:04:50;;;;;;;;;;;20.50;83.90;;;;;;10330166;28;1910;-69
2023/05/06 17:09:46;;;;;;;;;;;20.50;84.00;;;;;;10331011;28;915;-69
2023/05/06 17:14:42;;;;;;;;;;;20.50;83.90;;;;;;10330085;28;874;-69
2023/05/06 17:19:37;;;;;;;;;;;20.50;84.10;;;;;;10330475;28;956;-69
2023/05/06 17:24:34;;;;;;;;;;;20.50;84.20;;;;;;10328622;28;1890;-69
2023/05/06 17:29:29;;;;;;;;;;;20.50;84.40;;;;;;10329437;28;1003;-69
2023/05/06 17:34:25;;;;;;;;;;;20.50;84.50;;;;;;10329417;28;765;-69
2023/05/06 17:39:20;;;;;;;;;;;20.50;84.30;;;;;;10329137;28;757;-68
2023/05/06 17:44:17;;;;;;;;;;;20.50;84.20;;;;;;10329457;28;1971;-69
2023/05/06 17:49:12;;;;;;;;;;;20.50;84.40;;;;;;10328699;28;983;-69
2023/05/06 17:54:07;;;;;;;;;;;20.60;84.40;;;;;;10327973;28;929;-69
2023/05/06 17:59:04;;;;;;;;;;;20.60;84.30;;;;;;10329641;28;1674;-69
2023/05/06 18:03:59;;;;;;;;;;;20.60;84.50;;;;;;10328645;28;1973;-69
2023/05/06 18:08:55;;;;;;;;;;;20.60;84.20;;;;;;10327935;28;805;-69
2023/05/06 18:13:50;;;;;;;;;;;20.60;84.40;;;;;;10327756;28;786;-69
2023/05/06 18:18:45;;;;;;;;;;;20.50;84.40;;;;;;10327496;28;975;-69
2023/05/06 18:23:41;;;;;;;;;;;20.60;84.70;;;;;;10328031;28;1961;-69
2023/05/06 18:28:36;;;;;;;;;;;20.60;84.50;;;;;;10327142;28;768;-68
2023/05/06 18:33:32;;;;;;;;;;;20.60;84.50;;;;;;10326972;28;782;-69
2023/05/06 18:38:28;;;;;;;;;;;20.60;84.60;;;;;;10326527;28;889;-69
2023/05/06 18:43:23;;;;;;;;;;;20.60;84.60;;;;;;10326443;28;1906;-68
2023/05/06 18:48:19;;;;;;;;;;;20.60;84.80;;;;;;10326364;28;799;-69
2023/05/06 18:53:14;;;;;;;;;;;20.60;84.40;;;;;;10326320;28;772;-69
2023/05/06 18:58:09;;;;;;;;;;;20.60;84.80;;;;;;10326540;28;1466;-69
2023/05/06 19:03:05;;;;;;;;;;;20.60;84.80;;;;;;10325943;28;1902;-69
2023/05/06 19:08:00;;;;;;;;;;;20.60;84.50;;;;;;10326388;28;876;-69
2023/05/06 19:12:56;;;;;;;;;;;20.60;84.60;;;;;;10325767;28;1014;-69
2023/05/06 19:17:51;;;;;;;;;;;20.70;84.60;;;;;;10326220;28;833;-69
2023/05/06 19:22:46;;;;;;;;;;;20.60;84.50;;;;;;10325545;28;1955;-69
2023/05/06 19:27:42;;;;;;;;;;;20.60;84.50;;;;;;10324919;28;1290;-69
2023/05/06 19:32:39;;;;;;;;;;;20.60;84.70;;;;;;10324801;28;873;-69
2023/05/06 19:37:34;;;;;;;;;;;20.60;84.60;;;;;;10324603;28;1130;-68
2023/05/06 19:42:29;;;;;;;;;;;20.60;84.60;;;;;;10325089;28;1902;-69
2023/05/06 19:47:25;;;;;;;;;;;20.60;84.80;;;;;;10325449;28;798;-69
2023/05/06 19:52:20;;;;;;;;;;;20.60;84.90;;;;;;10333805;28;957;-69
2023/05/06 19:57:17;;;;;;;;;;;20.60;84.70;;;;;;10333614;28;987;-69
2023/05/06 20:02:15;;;;;;;;;;;20.60;85.00;;;;;;10333551;28;1961;-69
2023/05/06 20:07:10;;;;;;;;;;;20.60;84.90;;;;;;10332097;28;1635;-69
2023/05/06 20:12:06;;;;;;;;;;;20.60;84.90;;;;;;10333053;28;857;-69
2023/05/06 20:17:01;;;;;;;;;;;20.50;84.80;;;;;;10331724;28;861;-69
2023/05/06 20:21:56;;;;;;;;;;;20.50;85.00;;;;;;10332600;28;1949;-69
2023/05/06 20:26:52;;;;;;;;;;;20.50;85.10;;;;;;10331967;28;961;-69
2023/05/06 20:31:47;;;;;;;;;;;20.50;85.10;;;;;;10332352;28;875;-69
2023/05/06 20:36:43;;;;;;;;;;;20.50;85.10;;;;;;10331578;28;758;-69
2023/05/06 20:41:38;;;;;;;;;;;20.50;85.20;;;;;;10331316;28;1957;-69
2023/05/06 20:46:34;;;;;;;;;;;20.50;85.50;;;;;;10331893;28;864;-69
2023/05/06 20:51:30;;;;;;;;;;;20.50;85.20;;;;;;10331617;28;941;-69
2023/05/06 20:56:25;;;;;;;;;;;20.50;85.30;;;;;;10330779;28;855;-69
2023/05/06 21:01:20;;;;;;;;;;;20.50;85.20;;;;;;10331066;28;1886;-69
2023/05/06 21:06:16;;;;;;;;;;;20.50;85.40;;;;;;10331175;28;826;-69
2023/05/06 21:11:11;;;;;;;;;;;20.50;85.50;;;;;;10330576;28;805;-69
2023/05/06 21:16:06;;;;;;;;;;;20.50;85.50;;;;;;10330098;28;762;-69
2023/05/06 21:21:02;;;;;;;;;;;20.40;85.20;;;;;;10329810;28;1902;-69
2023/05/06 21:25:58;;;;;;;;;;;20.50;86.40;;;;;;10329393;28;1583;-69
2023/05/06 21:30:53;;;;;;;;;;;20.40;85.40;;;;;;10330497;28;774;-69
2023/05/06 21:35:49;;;;;;;;;;;20.40;85.20;;;;;;10329939;28;912;-69
2023/05/06 21:40:44;;;;;;;;;;;20.40;85.40;;;;;;10329723;28;753;-71
2023/05/06 21:45:39;;;;;;;;;;;20.40;85.40;;;;;;10329591;28;1898;-73
2023/05/06 21:50:35;;;;;;;;;;;20.40;85.30;;;;;;10329392;28;806;-72
2023/05/06 21:55:30;;;;;;;;;;;20.40;85.30;;;;;;10328540;28;929;-73
2023/05/06 22:00:26;;;;;;;;;;;20.50;85.30;;;;;;10328448;28;1207;-72
2023/05/06 22:05:22;;;;;;;;;;;20.50;85.00;;;;;;10328103;28;1914;-73
2023/05/06 22:10:17;;;;;;;;;;;20.50;85.10;;;;;;10327456;28;765;-72
2023/05/06 22:15:13;;;;;;;;;;;20.40;85.00;;;;;;10328307;28;784;-72
2023/05/06 22:20:10;;;;;;;;;;;20.50;85.20;;;;;;10328159;28;798;-72
2023/05/06 22:25:05;;;;;;;;;;;20.50;85.10;;;;;;10327244;28;1914;-72
2023/05/06 22:30:01;;;;;;;;;;;20.50;85.10;;;;;;10327282;28;852;-72
2023/05/06 22:34:56;;;;;;;;;;;20.50;85.10;;;;;;10327500;28;916;-72
2023/05/06 22:39:52;;;;;;;;;;;20.40;84.90;;;;;;10326772;28;908;-72
2023/05/06 22:44:47;;;;;;;;;;;20.50;84.80;;;;;;10326517;28;1910;-72
2023/05/06 22:49:43;;;;;;;;;;;20.50;85.00;;;;;;10326495;28;921;-72
2023/05/06 22:54:38;;;;;;;;;;;20.50;85.10;;;;;;10325841;28;955;-73
2023/05/06 22:59:33;;;;;;;;;;;20.40;84.90;;;;;;10325612;28;1288;-72
2023/05/06 23:04:29;;;;;;;;;;;20.40;85.00;;;;;;10325341;28;1918;-72
2023/05/06 23:09:24;;;;;;;;;;;20.40;85.00;;;;;;10325839;28;871;-72
2023/05/06 23:14:20;;;;;;;;;;;20.50;85.00;;;;;;10325871;28;757;-72
2023/05/06 23:19:15;;;;;;;;;;;20.40;85.00;;;;;;10325682;28;789;-72
2023/05/06 23:24:11;;;;;;;;;;;20.50;85.10;;;;;;10324606;28;1906;-72
2023/05/06 23:29:06;;;;;;;;;;;20.50;85.00;;;;;;10326035;28;801;-72
2023/05/06 23:34:01;;;;;;;;;;;20.50;85.00;;;;;;10325975;28;877;-72
2023/05/06 23:38:57;;;;;;;;;;;20.40;84.90;;;;;;10326027;28;814;-72
2023/05/06 23:43:52;;;;;;;;;;;20.50;85.20;;;;;;10325149;28;1902;-72
2023/05/06 23:48:48;;;;;;;;;;;20.40;85.10;;;;;;10325137;28;843;-72
2023/05/06 23:53:43;;;;;;;;;;;20.50;85.20;;;;;;10324976;28;790;-72
2023/05/06 23:58:38;;;;;;;;;;;20.40;85.20;;;;;;10325117;28;1243;-72
